Time;durP1;ratioP1;P1;durP2;ratioP2;P2;SDS_P1;SDS_P2;PMS_P1;PMS_P2;Temp;Humidity;BMP_temperature;BMP_pressure;BME280_temperature;BME280_humidity;BME280_pressure;Samples;Min_cycle;Max_cycle;Signal;HPM_P1;HPM_P2
2023/12/25 02:02:22;;;;;;;;;;;;;;;;;;;;;
2023/12/25 03:08:19;;;;;;;8.95;4.65;;;;;;;;;;10050659;28;20134;-76
2023/12/25 03:13:16;;;;;;;9.48;5.28;;;;;;;;;;10170042;28;20050;-76
2023/12/25 03:18:12;;;;;;;15.07;5.25;;;;;;;;;;10180536;28;20498;-77
2023/12/25 03:23:09;;;;;;;10.00;5.00;;;;;;;;;;10174690;28;20133;-76
2023/12/25 04:12:36;;;;;;;11.57;5.03;;;;;;;9.36;100.00;99622.47;12650512;23;20020;-74
2023/12/25 04:17:32;;;;;;;13.45;4.88;;;;;;;9.42;100.00;99642.97;12509475;23;1201711;-77
2023/12/25 04:22:28;;;;;;;8.70;4.70;;;;;;;9.39;100.00;99654.53;12511575;23;20076;-78
2023/12/25 04:58:19;;;;;;;;;;;;;;;;;;;;;
2023/12/25 05:30:39;;;;;;;14.65;6.03;;;;;;;8.85;100.00;99698.13;12632634;23;20745;-75
2023/12/25 05:35:36;;;;;;;11.38;5.22;;;;;;;8.92;100.00;99722.94;12575807;23;20044;-77
2023/12/25 05:40:33;;;;;;;14.52;6.43;;;;;;;8.88;100.00;99727.44;12550273;23;20024;-77
2023/12/25 05:45:29;;;;;;;13.05;5.68;;;;;;;8.88;100.00;99737.56;12576531;23;20029;-76
2023/12/25 05:50:26;;;;;;;11.90;6.03;;;;;;;8.88;100.00;99734.84;12553798;23;20577;-77
2023/12/25 05:56:32;;;;;;;;;;;;;;;;;;;;;
2023/12/25 06:03:12;;;;;;;12.52;5.72;;;;;;;8.84;100.00;99759.22;12461060;23;20049;-77
2023/12/25 06:09:13;;;;;;;17.70;7.60;;;;;;;8.69;100.00;99773.41;12205008;23;20035;-77
2023/12/25 06:15:07;;;;;;;;;;;;;;;;;;;;;
2023/12/25 06:20:24;;;;;;;16.75;7.03;;;;;;;8.61;100.00;99778.59;12280364;23;20035;-76
2023/12/25 06:25:21;;;;;;;12.13;6.00;;;;;;;8.60;100.00;99798.75;12366775;23;20022;-77
2023/12/25 06:30:18;;;;;;;18.35;6.75;;;;;;;8.58;100.00;99789.31;12404291;23;20453;-77
2023/12/25 06:35:47;;;;;;;16.75;7.25;;;;;;;8.56;100.00;99811.47;12453185;23;20033;-76
2023/12/25 06:41:44;;;;;;;16.77;8.02;;;;;;;8.51;100.00;99827.19;12483362;23;20025;-77
2023/12/25 06:47:10;;;;;;;19.42;7.20;;;;;;;8.45;100.00;99829.28;12493909;23;20017;-76
2023/12/25 06:52:45;;;;;;;24.10;7.93;;;;;;;8.36;100.00;99831.19;12550444;23;20076;-76
2023/12/25 06:57:52;;;;;;;22.38;7.80;;;;;;;8.35;100.00;99835.81;12535319;23;20057;-76
2023/12/25 07:03:55;;;;;;;22.52;7.75;;;;;;;8.32;100.00;99841.13;12535167;23;20025;-77
2023/12/25 07:09:51;;;;;;;;;;;;;;;;;;;;;
2023/12/25 07:15:44;;;;;;;16.02;7.75;;;;;;;8.31;100.00;99834.91;12484635;23;20068;-77
2023/12/25 07:21:48;;;;;;;16.73;8.05;;;;;;;8.28;100.00;99867.41;12508630;23;20033;-75
2023/12/25 07:26:57;;;;;;;28.30;8.45;;;;;;;8.19;100.00;99854.63;12537523;23;20430;-75
2023/12/25 07:32:14;;;;;;;22.00;9.30;;;;;;;8.02;100.00;99884.56;12527565;23;20032;-75
2023/12/25 07:37:15;;;;;;;18.52;7.65;;;;;;;8.03;100.00;99883.47;12525969;23;20032;-76
2023/12/25 07:42:12;;;;;;;16.48;9.30;;;;;;;7.89;100.00;99910.03;12521831;23;20036;-77
2023/12/25 07:47:08;;;;;;;26.77;8.57;;;;;;;7.85;100.00;99909.09;12521537;23;20031;-74
2023/12/25 07:52:05;;;;;;;20.08;7.93;;;;;;;7.79;100.00;99914.66;12521479;23;20105;-77
2023/12/25 07:57:02;;;;;;;32.17;8.68;;;;;;;7.66;100.00;99923.78;12523918;23;20473;-77
2023/12/25 08:01:58;;;;;;;24.20;8.30;;;;;;;7.61;100.00;99926.63;12528444;23;20456;-76
2023/12/25 08:06:55;;;;;;;20.70;8.13;;;;;;;7.58;100.00;99949.03;12520846;23;20116;-77
2023/12/25 08:11:51;;;;;;;31.45;9.90;;;;;;;7.52;100.00;99947.56;12525049;23;20029;-77
2023/12/25 08:16:47;;;;;;;25.10;9.00;;;;;;;7.55;100.00;99960.56;12528389;23;20028;-77
2023/12/25 08:21:46;;;;;;;23.40;8.25;;;;;;;7.59;100.00;99966.97;12532618;23;20028;-76
2023/12/25 08:26:42;;;;;;;26.70;9.30;;;;;;;7.61;100.00;99981.03;12532876;23;20532;-77
2023/12/25 08:31:42;;;;;;;24.23;9.75;;;;;;;7.57;100.00;99985.53;12524733;23;20057;-77
2023/12/25 08:36:38;;;;;;;25.50;10.00;;;;;;;7.49;100.00;99983.56;12520945;23;20029;-76
2023/12/25 08:41:35;;;;;;;23.92;9.15;;;;;;;7.51;100.00;99978.63;12524161;23;20476;-77
2023/12/25 08:46:31;;;;;;;25.73;9.60;;;;;;;7.56;100.00;99997.53;12519049;23;20025;-75
2023/12/25 08:51:29;;;;;;;29.88;10.35;;;;;;;7.57;100.00;100010.03;12517888;23;20029;-76
2023/12/25 08:56:26;;;;;;;27.38;8.93;;;;;;;7.51;100.00;100035.75;12520092;23;20263;-75
2023/12/25 09:01:24;;;;;;;20.45;8.73;;;;;;;7.48;100.00;100028.22;12519718;23;20025;-78
2023/12/25 09:06:21;;;;;;;22.25;8.10;;;;;;;7.44;100.00;100024.53;12519962;23;20036;-78
2023/12/25 09:11:18;;;;;;;30.30;8.60;;;;;;;7.44;100.00;100029.97;12520021;23;20550;-75
2023/12/25 09:16:14;;;;;;;25.75;8.18;;;;;;;7.40;100.00;100034.41;12543229;23;20025;-77
2023/12/25 09:21:12;;;;;;;20.08;8.50;;;;;;;7.50;100.00;100051.28;12520232;23;20072;-74
2023/12/25 09:26:09;;;;;;;19.60;7.50;;;;;;;7.54;100.00;100056.88;12519823;23;20026;-76
2023/12/25 09:31:05;;;;;;;19.52;8.13;;;;;;;7.58;100.00;100068.75;12519112;23;20055;-77
2023/12/25 09:36:02;;;;;;;32.15;9.32;;;;;;;7.68;100.00;100068.50;12518139;23;20088;-78
2023/12/25 09:41:00;;;;;;;21.98;8.40;;;;;;;7.76;100.00;100073.16;12517313;23;20054;-77
2023/12/25 09:45:58;;;;;;;19.10;8.32;;;;;;;7.86;100.00;100090.31;12518583;23;20025;-76
2023/12/25 09:50:57;;;;;;;30.48;9.60;;;;;;;7.86;100.00;100085.66;12518504;23;20025;-76
2023/12/25 10:07:25;;;;;;;;;;;;;;;;;;;;;
2023/12/25 10:12:49;;;;;;;23.92;10.18;;;;;;;7.53;100.00;100109.69;12493245;23;20033;-77
2023/12/25 10:18:27;;;;;;;31.20;9.83;;;;;;;7.52;100.00;100108.06;12495589;23;20029;-76
2023/12/25 10:23:39;;;;;;;30.17;9.93;;;;;;;7.77;100.00;100122.94;12492506;23;20026;-76
2023/12/25 10:28:36;;;;;;;20.70;8.52;;;;;;;7.68;100.00;100141.94;12491487;23;20146;-75
2023/12/25 10:33:48;;;;;;;18.17;8.20;;;;;;;7.69;100.00;100132.66;12506746;23;20029;-77
2023/12/25 10:39:55;;;;;;;14.68;7.43;;;;;;;7.94;100.00;100125.72;12492549;23;20368;-78
2023/12/25 10:45:21;;;;;;;19.90;6.85;;;;;;;8.27;100.00;100140.91;12234785;23;20092;-77
2023/12/25 10:50:36;;;;;;;23.25;7.68;;;;;;;8.20;100.00;100128.53;12476297;23;20053;-77
2023/12/25 10:55:36;;;;;;;16.13;7.40;;;;;;;8.16;100.00;100138.44;12514112;23;20021;-77
2023/12/25 11:00:39;;;;;;;24.73;7.70;;;;;;;8.12;100.00;100140.22;12516269;23;20408;-77
2023/12/25 11:05:41;;;;;;;22.48;9.13;;;;;;;8.31;100.00;100156.28;12456351;23;20464;-78
2023/12/25 11:10:38;;;;;;;24.80;8.55;;;;;;;8.59;100.00;100131.53;12455614;23;20033;-78
2023/12/25 11:15:35;;;;;;;30.23;9.70;;;;;;;8.41;100.00;100127.97;12456347;23;20029;-77
2023/12/25 11:20:31;;;;;;;24.08;7.90;;;;;;;8.54;100.00;100131.69;12457132;23;20084;-78
2023/12/25 11:25:32;;;;;;;30.67;7.63;;;;;;;8.56;100.00;100130.25;12456345;23;20028;-76
2023/12/25 11:30:31;;;;;;;17.90;6.88;;;;;;;8.43;100.00;100142.09;12454693;23;20018;-76
2023/12/25 11:35:29;;;;;;;14.48;6.25;;;;;;;8.43;100.00;100164.69;12457227;23;20096;-76
2023/12/25 11:40:39;;;;;;;22.90;7.07;;;;;;;8.51;100.00;100154.91;12456992;23;20518;-77
2023/12/25 11:45:50;;;;;;;24.60;7.72;;;;;;;8.57;100.00;100170.00;12458087;23;20586;-77
2023/12/25 11:50:59;;;;;;;21.15;6.97;;;;;;;8.63;100.00;100157.84;12459036;23;20045;-77
2023/12/25 11:55:56;;;;;;;32.42;8.07;;;;;;;8.83;100.00;100166.50;12459914;23;20533;-78
2023/12/25 12:00:53;;;;;;;22.98;7.63;;;;;;;8.70;100.00;100189.25;12462432;23;20032;-78
2023/12/25 12:05:49;;;;;;;22.27;7.10;;;;;;;8.79;100.00;100195.53;12520367;23;20025;-78
2023/12/25 12:10:50;;;;;;;20.70;7.63;;;;;;;9.23;100.00;100186.25;12495277;23;20029;-75
2023/12/25 12:15:46;;;;;;;23.40;7.32;;;;;;;9.14;100.00;100203.75;12494817;23;20039;-76
2023/12/25 12:20:43;;;;;;;15.93;6.88;;;;;;;9.87;100.00;100199.16;12495269;23;20026;-78
2023/12/25 12:25:40;;;;;;;21.50;6.90;;;;;;;9.74;100.00;100213.00;12521317;23;20029;-78
2023/12/25 12:30:36;;;;;;;29.83;7.40;;;;;;;10.01;100.00;100198.97;12495910;23;20025;-77
2023/12/25 12:35:34;;;;;;;16.92;6.38;;;;;;;10.02;100.00;100205.22;12520973;23;20025;-78
2023/12/25 12:40:31;;;;;;;21.98;7.13;;;;;;;10.01;100.00;100215.34;12494134;23;20025;-76
2023/12/25 12:45:27;;;;;;;22.40;7.70;;;;;;;9.80;100.00;100204.31;12518314;23;20494;-77
2023/12/25 12:50:25;;;;;;;26.77;7.57;;;;;;;9.83;100.00;100198.19;12543086;23;20025;-77
2023/12/25 12:55:22;;;;;;;22.20;6.45;;;;;;;9.54;100.00;100228.13;12519814;23;20025;-77
2023/12/25 13:00:18;;;;;;;13.93;6.20;;;;;;;9.38;100.00;100214.97;12517166;23;20053;-78
2023/12/25 13:11:55;;;;;;;;;;;;;;;8.81;100.00;100234.19;12424914;23;20025;-76
2023/12/25 13:17:42;;;;;;;;;;;;;;;;;;;;;
2023/12/25 13:29:03;;;;;;;17.98;6.45;;;;;;;8.64;100.00;100248.56;12525752;23;20160;-78
2023/12/25 13:35:11;;;;;;;21.23;9.35;;;;;;;8.63;100.00;100249.66;12269911;23;20189;-78
2023/12/25 13:40:53;;;;;;;20.25;5.85;;;;;;;8.56;100.00;100250.16;12286135;23;20034;-76
2023/12/25 13:46:53;;;;;;;15.05;5.75;;;;;;;8.29;100.00;100266.69;12209278;23;20037;-78
2023/12/25 13:53:21;;;;;;;;;;;;;;;;;;;;;
2023/12/25 14:04:34;;;;;;;23.25;6.88;;;;;;;8.00;100.00;100287.00;12531093;23;20029;-77
2023/12/25 14:10:03;;;;;;;17.33;7.28;;;;;;;7.90;100.00;100292.72;12354062;23;20485;-75
2023/12/25 14:16:31;;;;;;;;;;;;;;;;;;;;;
2023/12/25 14:29:19;;;;;;;;;;;;;;;;;;;;;
2023/12/25 15:40:40;;;;;;;26.83;12.10;;;;;;;7.05;100.00;100268.00;12580793;23;20021;-78
2023/12/25 17:30:26;;;;;;;17.17;11.65;;;;;;;6.68;100.00;100229.09;12300637;23;20034;-77
2023/12/25 17:42:49;;;;;;;13.82;10.90;;;;;;;6.89;100.00;100254.75;12187211;23;20031;-77
2023/12/25 17:49:16;;;;;;;;;;;;;;;;;;;;;
2023/12/25 18:02:02;;;;;;;12.55;10.10;;;;;;;7.07;100.00;100276.66;11825406;24;20030;-77
2023/12/25 18:50:43;;;;;;;;;;;;;;;;;;;;;
2023/12/25 22:43:29;;;;;;;;;;;;;;;;;;;;;
2023/12/25 22:48:43;;;;;;;11.20;9.68;;;;;;;8.05;100.00;99794.09;12337630;23;20098;-75
2023/12/25 22:53:40;;;;;;;10.52;9.15;;;;;;;8.06;100.00;99779.38;12344094;23;20030;-77
2023/12/25 22:58:37;;;;;;;15.52;9.70;;;;;;;8.08;100.00;99782.56;12329668;23;20691;-77
2023/12/25 23:03:36;;;;;;;12.80;9.15;;;;;;;8.09;100.00;99778.72;12329150;23;20059;-75
2023/12/25 23:19:16;;;;;;;12.97;8.70;;;;;;;8.10;100.00;99769.44;12487832;23;20021;-77
2023/12/25 23:24:13;;;;;;;9.88;8.88;;;;;;;8.07;100.00;99767.34;12572702;23;20023;-76
2023/12/25 23:29:10;;;;;;;12.52;8.10;;;;;;;8.06;100.00;99768.47;12634064;23;20024;-76
2023/12/25 23:51:41;;;;;;;9.88;8.88;;;;;;;8.09;100.00;99735.16;12630762;23;20024;-76
